createdAt,value
2023-05-14T00:02:03.662Z,12.68
2023-05-14T00:04:31.409Z,12.67
2023-05-14T00:06:59.038Z,12.65
2023-05-14T00:09:26.578Z,12.66
2023-05-14T00:11:54.115Z,12.64
2023-05-14T00:14:22.040Z,12.61
2023-05-14T00:16:49.983Z,12.62
2023-05-14T00:19:18.014Z,12.62
2023-05-14T00:21:45.673Z,12.61
2023-05-14T00:24:13.235Z,12.60
2023-05-14T00:26:40.843Z,12.57
2023-05-14T00:29:08.366Z,12.52
2023-05-14T00:31:35.996Z,12.49
2023-05-14T00:34:03.982Z,12.49
2023-05-14T00:36:31.744Z,12.49
2023-05-14T00:38:59.275Z,12.48
2023-05-14T00:41:26.946Z,12.49
2023-05-14T00:43:54.939Z,12.49
2023-05-14T00:46:22.634Z,12.47
2023-05-14T00:48:51.847Z,12.48
2023-05-14T00:51:20.016Z,12.47
2023-05-14T00:53:47.902Z,12.48
2023-05-14T00:56:16.690Z,12.46
2023-05-14T00:58:44.268Z,12.47
2023-05-14T01:01:15.348Z,12.47
2023-05-14T01:03:43.589Z,12.48
2023-05-14T01:06:14.295Z,12.50
2023-05-14T01:08:59.652Z,12.50
2023-05-14T01:11:36.743Z,12.52
2023-05-14T01:14:34.640Z,12.52
2023-05-14T01:17:05.031Z,12.51
2023-05-14T01:19:42.991Z,12.49
2023-05-14T01:22:11.426Z,12.49
2023-05-14T01:24:39.430Z,12.49
2023-05-14T01:27:23.483Z,12.51
2023-05-14T01:30:03.178Z,12.50
2023-05-14T01:32:33.292Z,12.51
2023-05-14T01:35:01.852Z,12.51
2023-05-14T01:37:31.244Z,12.49
2023-05-14T01:40:00.399Z,12.46
2023-05-14T01:42:29.203Z,12.42
2023-05-14T01:44:56.889Z,12.36
2023-05-14T01:47:24.603Z,12.33
2023-05-14T01:49:52.174Z,12.34
2023-05-14T01:52:21.324Z,12.32
2023-05-14T01:54:49.175Z,12.24
2023-05-14T01:57:16.841Z,12.20
2023-05-14T01:59:44.485Z,12.18
2023-05-14T02:02:12.046Z,12.12
2023-05-14T02:04:39.782Z,12.10
2023-05-14T02:07:07.453Z,12.09
2023-05-14T02:09:35.103Z,12.06
2023-05-14T02:12:02.660Z,12.05
2023-05-14T02:14:30.379Z,12.04
2023-05-14T02:16:58.114Z,12.04
2023-05-14T02:19:25.767Z,12.03
2023-05-14T02:21:53.333Z,12.02
2023-05-14T02:24:20.968Z,11.99
2023-05-14T02:26:48.568Z,11.95
2023-05-14T02:29:16.107Z,11.91
2023-05-14T02:31:43.845Z,11.88
2023-05-14T02:34:11.706Z,11.84
2023-05-14T02:36:39.221Z,11.84
2023-05-14T02:39:06.794Z,11.79
2023-05-14T02:41:34.414Z,11.72
2023-05-14T02:44:02.131Z,11.67
2023-05-14T02:46:31.372Z,11.62
2023-05-14T02:48:59.245Z,11.60
2023-05-14T02:51:27.343Z,11.60
2023-05-14T02:53:54.906Z,11.59
2023-05-14T02:56:22.679Z,11.60
2023-05-14T02:58:50.340Z,11.60
2023-05-14T03:01:19.196Z,11.58
2023-05-14T03:03:47.423Z,11.55
2023-05-14T03:06:15.437Z,11.53
2023-05-14T03:08:43.049Z,11.52
2023-05-14T03:11:10.677Z,11.47
2023-05-14T03:13:40.788Z,11.39
2023-05-14T03:16:08.471Z,11.37
2023-05-14T03:18:37.267Z,11.37
2023-05-14T03:21:05.002Z,11.37
2023-05-14T03:27:33.710Z,11.38
2023-05-14T03:34:14.521Z,11.25
2023-05-14T03:36:42.168Z,11.24
2023-05-14T03:39:09.821Z,11.24
2023-05-14T03:44:37.030Z,11.25
2023-05-14T03:50:53.284Z,11.28
2023-05-14T03:53:20.997Z,11.29
2023-05-14T03:55:48.580Z,11.29
2023-05-14T03:58:17.635Z,11.32
2023-05-14T04:00:45.197Z,11.38
2023-05-14T04:03:13.110Z,11.44
2023-05-14T04:05:41.166Z,11.48
2023-05-14T04:08:08.968Z,11.50
2023-05-14T04:10:36.574Z,11.51
2023-05-14T04:13:04.227Z,11.53
2023-05-14T04:15:35.973Z,11.53
2023-05-14T04:18:03.757Z,11.54
2023-05-14T04:20:31.611Z,11.53
2023-05-14T04:22:59.204Z,11.53
2023-05-14T04:25:26.783Z,11.48
2023-05-14T04:27:54.427Z,11.48
2023-05-14T04:30:22.358Z,11.48
2023-05-14T04:32:50.210Z,11.46
2023-05-14T04:35:18.101Z,11.44
2023-05-14T04:37:48.038Z,11.43
2023-05-14T04:40:19.096Z,11.43
2023-05-14T04:42:46.624Z,11.44
2023-05-14T04:45:14.671Z,11.42
2023-05-14T04:47:42.572Z,11.42
2023-05-14T04:50:10.187Z,11.46
2023-05-14T04:52:38.509Z,11.50
2023-05-14T04:55:06.736Z,11.55
2023-05-14T04:57:34.461Z,11.58
2023-05-14T05:00:02.326Z,11.63
2023-05-14T05:02:29.964Z,11.70
2023-05-14T05:04:57.480Z,11.76
2023-05-14T05:07:25.058Z,11.82
2023-05-14T05:09:52.728Z,11.89
2023-05-14T05:12:21.511Z,11.96
2023-05-14T05:14:48.994Z,12.03
2023-05-14T05:17:16.632Z,12.07
2023-05-14T05:19:44.763Z,12.14
2023-05-14T05:22:12.506Z,12.22
2023-05-14T05:24:40.065Z,12.33
2023-05-14T05:27:07.881Z,12.42
2023-05-14T05:29:37.020Z,12.46
2023-05-14T05:32:05.008Z,12.48
2023-05-14T05:34:32.750Z,12.53
2023-05-14T05:37:00.535Z,12.60
2023-05-14T05:39:28.211Z,12.65
2023-05-14T05:41:55.760Z,12.67
2023-05-14T05:44:23.275Z,12.71
2023-05-14T05:46:51.242Z,12.74
2023-05-14T05:49:18.829Z,12.77
2023-05-14T05:51:46.378Z,12.80
2023-05-14T05:54:13.957Z,12.81
2023-05-14T05:56:41.526Z,12.82
2023-05-14T05:59:09.318Z,12.81
2023-05-14T06:01:37.437Z,12.79
2023-05-14T06:04:06.400Z,12.80
2023-05-14T06:06:33.963Z,12.84
2023-05-14T06:09:02.173Z,12.88
2023-05-14T06:11:29.746Z,12.91
2023-05-14T06:13:57.280Z,12.94
2023-05-14T06:16:25.500Z,12.97
2023-05-14T06:18:54.525Z,12.98
2023-05-14T06:21:22.195Z,13.02
2023-05-14T06:23:49.858Z,13.03
2023-05-14T06:26:17.378Z,13.02
2023-05-14T06:28:44.953Z,13.01
2023-05-14T06:31:12.633Z,13.02
2023-05-14T06:33:40.185Z,13.04
2023-05-14T06:36:08.352Z,13.05
2023-05-14T06:38:36.015Z,13.06
2023-05-14T06:41:03.642Z,13.07
2023-05-14T06:43:31.163Z,13.10
2023-05-14T06:45:58.739Z,13.18
2023-05-14T06:48:27.965Z,13.25
2023-05-14T06:50:55.887Z,13.35
2023-05-14T06:53:23.488Z,13.42
2023-05-14T06:55:51.046Z,13.47
2023-05-14T06:58:18.616Z,13.54
2023-05-14T07:00:46.255Z,13.67
2023-05-14T07:03:13.785Z,13.76
2023-05-14T07:05:41.421Z,13.85
2023-05-14T07:08:08.972Z,13.97
2023-05-14T07:10:36.594Z,14.11
2023-05-14T07:13:04.112Z,14.22
2023-05-14T07:15:32.126Z,14.36
2023-05-14T07:17:59.681Z,14.47
2023-05-14T07:20:27.445Z,14.58
2023-05-14T07:22:55.290Z,14.68
2023-05-14T07:25:22.913Z,14.84
2023-05-14T07:27:50.610Z,15.03
2023-05-14T07:30:18.221Z,15.22
2023-05-14T07:32:46.094Z,15.28
2023-05-14T07:35:13.799Z,15.42
2023-05-14T07:37:42.970Z,15.60
2023-05-14T07:40:10.810Z,15.80
2023-05-14T07:42:38.373Z,16.11
2023-05-14T07:45:06.597Z,16.28
2023-05-14T07:47:36.282Z,16.47
2023-05-14T07:50:04.186Z,16.62
2023-05-14T07:52:33.392Z,16.78
2023-05-14T07:55:01.585Z,16.91
2023-05-14T07:57:29.173Z,17.00
2023-05-14T07:59:57.068Z,17.06
2023-05-14T08:02:24.691Z,17.00
2023-05-14T08:04:52.463Z,16.76
2023-05-14T08:07:20.049Z,16.47
2023-05-14T08:09:47.685Z,16.19
2023-05-14T08:12:16.100Z,16.05
2023-05-14T08:14:43.727Z,15.92
2023-05-14T08:17:11.484Z,15.83
2023-05-14T08:19:39.251Z,15.80
2023-05-14T08:22:07.402Z,15.73
2023-05-14T08:24:35.055Z,15.63
2023-05-14T08:27:02.672Z,15.51
2023-05-14T08:29:30.765Z,15.43
2023-05-14T08:32:00.294Z,15.38
2023-05-14T08:34:29.921Z,15.42
2023-05-14T08:36:57.492Z,15.49
2023-05-14T08:39:25.118Z,15.53
2023-05-14T08:41:52.850Z,15.54
2023-05-14T08:44:28.226Z,15.55
2023-05-14T08:46:56.493Z,15.63
2023-05-14T08:49:47.380Z,15.63
2023-05-14T08:52:17.842Z,15.60
2023-05-14T08:54:48.302Z,15.52
2023-05-14T08:57:18.697Z,15.42
2023-05-14T08:59:46.413Z,15.34
2023-05-14T09:02:15.303Z,15.33
2023-05-14T09:04:43.462Z,15.35
2023-05-14T09:07:11.652Z,15.41
2023-05-14T09:09:40.137Z,15.49
2023-05-14T09:12:08.212Z,15.64
2023-05-14T09:14:35.990Z,15.73
2023-05-14T09:17:03.790Z,15.68
2023-05-14T09:19:31.705Z,15.74
2023-05-14T09:21:59.337Z,15.72
2023-05-14T09:24:30.903Z,15.51
2023-05-14T09:26:59.204Z,15.42
2023-05-14T09:29:29.367Z,15.51
2023-05-14T09:31:58.607Z,15.65
2023-05-14T09:34:31.177Z,15.81
2023-05-14T09:37:04.069Z,15.73
2023-05-14T09:39:33.934Z,15.65
2023-05-14T09:45:12.876Z,15.46
2023-05-14T09:47:41.502Z,15.54
2023-05-14T09:50:09.507Z,15.64
2023-05-14T09:52:37.437Z,15.69
2023-05-14T09:55:05.770Z,15.71
2023-05-14T09:57:34.668Z,15.67
2023-05-14T10:00:02.475Z,15.54
2023-05-14T10:02:38.402Z,15.39
2023-05-14T10:05:08.025Z,15.34
2023-05-14T10:07:41.743Z,15.25
2023-05-14T10:10:15.865Z,15.14
2023-05-14T10:12:51.734Z,15.04
2023-05-14T10:15:58.842Z,14.94
2023-05-14T10:18:31.192Z,14.91
2023-05-14T10:21:06.421Z,14.87
2023-05-14T10:23:37.877Z,14.86
2023-05-14T10:26:06.609Z,14.83
2023-05-14T10:28:34.756Z,14.85
2023-05-14T10:31:02.557Z,14.91
2023-05-14T10:33:30.563Z,14.86
2023-05-14T10:36:01.988Z,14.89
2023-05-14T10:38:32.798Z,14.93
2023-05-14T10:41:07.548Z,15.00
2023-05-14T10:43:40.700Z,15.09
2023-05-14T10:46:09.949Z,15.08
2023-05-14T10:48:39.234Z,14.98
2023-05-14T10:51:09.358Z,14.91
2023-05-14T10:54:08.444Z,14.84
2023-05-14T10:56:37.364Z,14.81
2023-05-14T10:59:06.862Z,14.79
2023-05-14T11:01:35.131Z,14.76
2023-05-14T11:04:03.758Z,14.73
2023-05-14T11:06:31.635Z,14.70
2023-05-14T11:09:01.724Z,14.71
2023-05-14T11:11:29.599Z,14.70
2023-05-14T11:13:57.389Z,14.70
2023-05-14T11:16:30.848Z,14.68
2023-05-14T11:19:03.643Z,14.64
2023-05-14T11:21:32.953Z,14.62
2023-05-14T11:24:01.480Z,14.69
2023-05-14T11:26:29.162Z,14.73
2023-05-14T11:28:56.976Z,14.70
2023-05-14T11:31:25.713Z,14.62
2023-05-14T11:33:53.695Z,14.53
2023-05-14T11:36:22.287Z,14.42
2023-05-14T11:38:51.556Z,14.35
2023-05-14T11:41:21.642Z,14.30
2023-05-14T11:43:49.495Z,14.24
2023-05-14T11:46:21.932Z,14.23
2023-05-14T11:48:49.748Z,14.24
2023-05-14T11:51:17.302Z,14.35
2023-05-14T11:53:45.633Z,14.52
2023-05-14T11:56:13.350Z,14.69
2023-05-14T11:58:41.050Z,14.87
2023-05-14T12:01:13.592Z,15.09
2023-05-14T12:03:41.579Z,15.31
2023-05-14T12:06:09.190Z,15.53
2023-05-14T12:08:37.793Z,15.65
2023-05-14T12:11:05.508Z,15.83
2023-05-14T12:13:33.525Z,16.07
2023-05-14T12:16:05.592Z,16.16
2023-05-14T12:18:33.908Z,16.19
2023-05-14T12:21:07.970Z,16.24
2023-05-14T12:23:35.879Z,16.35
2023-05-14T12:26:08.379Z,16.90
2023-05-14T12:28:43.489Z,17.57
2023-05-14T12:31:11.490Z,18.19
2023-05-14T12:33:39.154Z,18.67
2023-05-14T12:39:28.068Z,19.65
2023-05-14T12:41:55.955Z,19.77
2023-05-14T12:44:23.632Z,19.79
2023-05-14T12:53:42.852Z,20.67
2023-05-14T12:59:25.821Z,21.49
2023-05-14T13:01:53.410Z,21.67
2023-05-14T13:04:27.418Z,21.93
2023-05-14T13:06:55.174Z,22.40
2023-05-14T13:09:22.753Z,22.34
2023-05-14T13:11:50.400Z,22.06
2023-05-14T13:14:26.872Z,21.79
2023-05-14T13:16:54.648Z,21.73
2023-05-14T13:19:27.773Z,21.42
2023-05-14T13:21:55.459Z,21.28
2023-05-14T13:24:25.027Z,21.11
2023-05-14T13:26:55.956Z,20.84
2023-05-14T13:29:23.923Z,20.49
2023-05-14T13:31:51.424Z,20.24
2023-05-14T13:34:19.128Z,20.13
2023-05-14T13:36:47.315Z,19.95
2023-05-14T13:39:14.850Z,19.93
2023-05-14T13:41:42.716Z,19.93
2023-05-14T13:44:10.398Z,19.98
2023-05-14T13:46:38.150Z,20.04
2023-05-14T13:49:06.607Z,20.06
2023-05-14T13:51:34.136Z,20.04
2023-05-14T13:54:01.724Z,20.07
2023-05-14T13:56:29.408Z,20.09
2023-05-14T13:58:57.007Z,20.11
2023-05-14T14:01:24.622Z,20.11
2023-05-14T14:03:52.265Z,20.19
2023-05-14T14:06:19.815Z,20.33
2023-05-14T14:08:47.453Z,20.38
2023-05-14T14:11:15.101Z,20.29
2023-05-14T14:13:43.769Z,20.10
2023-05-14T14:16:12.683Z,19.90
2023-05-14T14:18:40.424Z,19.78
2023-05-14T14:21:08.032Z,19.58
2023-05-14T14:23:35.588Z,19.36
2023-05-14T14:26:03.860Z,19.29
2023-05-14T14:28:31.594Z,19.32
2023-05-14T14:30:59.294Z,19.25
2023-05-14T14:33:27.997Z,19.17
2023-05-14T14:35:56.202Z,19.23
2023-05-14T14:38:24.994Z,19.31
2023-05-14T14:40:52.600Z,19.37
2023-05-14T14:43:20.552Z,19.30
2023-05-14T14:45:49.047Z,19.29
2023-05-14T14:48:25.261Z,19.36
2023-05-14T14:50:53.781Z,19.47
2023-05-14T14:53:25.209Z,19.54
2023-05-14T14:55:53.392Z,19.62
2023-05-14T14:58:21.287Z,19.51
2023-05-14T15:00:51.310Z,19.51
2023-05-14T15:03:19.416Z,19.52
2023-05-14T15:05:47.716Z,19.41
2023-05-14T15:08:15.788Z,19.25
2023-05-14T15:10:44.949Z,19.11
2023-05-14T15:13:13.049Z,19.00
2023-05-14T15:15:40.786Z,18.87
2023-05-14T15:18:08.465Z,18.75
2023-05-14T15:20:36.324Z,18.65
2023-05-14T15:23:03.990Z,18.67
2023-05-14T15:25:31.655Z,18.73
2023-05-14T15:27:59.355Z,18.70
2023-05-14T15:30:26.965Z,18.76
2023-05-14T15:32:55.493Z,18.86
2023-05-14T15:35:23.326Z,18.87
2023-05-14T15:37:51.116Z,18.76
2023-05-14T15:40:19.113Z,18.66
2023-05-14T15:42:47.073Z,18.61
2023-05-14T15:45:14.977Z,18.57
2023-05-14T15:47:42.584Z,18.55
2023-05-14T15:50:10.263Z,18.59
2023-05-14T15:52:39.477Z,18.64
2023-05-14T15:55:07.640Z,18.76
2023-05-14T15:57:35.420Z,18.90
2023-05-14T16:00:10.414Z,18.96
2023-05-14T16:02:39.413Z,19.00
2023-05-14T16:05:08.386Z,18.95
2023-05-14T16:07:36.630Z,18.80
2023-05-14T16:10:05.032Z,18.61
2023-05-14T16:12:32.710Z,18.44
2023-05-14T16:15:00.545Z,18.29
2023-05-14T16:17:28.659Z,18.12
2023-05-14T16:19:56.635Z,17.92
2023-05-14T16:22:24.304Z,17.77
2023-05-14T16:24:51.940Z,17.67
2023-05-14T16:27:19.591Z,17.56
2023-05-14T16:29:47.228Z,17.44
2023-05-14T16:32:14.886Z,17.35
2023-05-14T16:34:47.493Z,17.34
2023-05-14T16:37:20.038Z,17.33
2023-05-14T16:39:48.192Z,17.26
2023-05-14T16:42:15.748Z,17.21
2023-05-14T16:44:43.361Z,17.03
2023-05-14T16:47:11.209Z,16.86
2023-05-14T16:49:38.906Z,16.77
2023-05-14T16:52:07.005Z,16.73
2023-05-14T16:54:35.138Z,16.74
2023-05-14T16:57:02.801Z,16.78
2023-05-14T16:59:30.420Z,16.84
2023-05-14T17:01:58.037Z,16.89
2023-05-14T17:04:26.682Z,16.89
2023-05-14T17:06:54.797Z,16.86
2023-05-14T17:09:22.630Z,16.74
2023-05-14T17:11:50.210Z,16.59
2023-05-14T17:14:17.761Z,16.49
2023-05-14T17:16:45.418Z,16.42
2023-05-14T17:19:13.083Z,16.30
2023-05-14T17:21:40.698Z,16.15
2023-05-14T17:24:08.467Z,16.03
2023-05-14T17:26:37.704Z,15.98
2023-05-14T17:29:05.321Z,15.94
2023-05-14T17:31:32.917Z,15.89
2023-05-14T17:34:00.843Z,15.85
2023-05-14T17:36:28.697Z,15.79
2023-05-14T17:38:56.292Z,15.71
2023-05-14T17:41:24.019Z,15.63
2023-05-14T17:43:52.582Z,15.63
2023-05-14T17:46:21.376Z,15.61
2023-05-14T17:48:48.926Z,15.59
2023-05-14T17:51:16.557Z,15.52
2023-05-14T17:53:44.233Z,15.45
2023-05-14T17:56:12.186Z,15.36
2023-05-14T17:58:39.856Z,15.26
2023-05-14T18:01:07.751Z,15.17
2023-05-14T18:03:35.644Z,15.08
2023-05-14T18:06:03.672Z,15.05
2023-05-14T18:08:31.315Z,15.00
2023-05-14T18:11:00.797Z,14.99
2023-05-14T18:13:28.357Z,14.99
2023-05-14T18:15:56.671Z,14.96
2023-05-14T18:18:24.472Z,14.89
2023-05-14T18:20:53.047Z,14.82
2023-05-14T18:23:20.646Z,14.77
2023-05-14T18:25:48.757Z,14.69
2023-05-14T18:28:16.489Z,14.60
2023-05-14T18:30:45.552Z,14.56
2023-05-14T18:33:13.284Z,14.47
2023-05-14T18:35:43.623Z,14.37
2023-05-14T18:38:12.507Z,14.31
2023-05-14T18:40:40.018Z,14.21
2023-05-14T18:43:07.709Z,14.19
2023-05-14T18:45:35.376Z,14.14
2023-05-14T18:48:03.102Z,14.07
2023-05-14T18:50:30.814Z,13.96
2023-05-14T18:52:58.424Z,13.90
2023-05-14T18:55:26.426Z,13.86
2023-05-14T18:57:54.373Z,13.79
2023-05-14T19:00:21.993Z,13.69
2023-05-14T19:02:49.723Z,13.65
2023-05-14T19:05:17.384Z,13.58
2023-05-14T19:07:48.430Z,13.54
2023-05-14T19:10:15.978Z,13.50
2023-05-14T19:12:43.552Z,13.44
2023-05-14T19:15:11.721Z,13.38
2023-05-14T19:17:39.456Z,13.30
2023-05-14T19:20:08.118Z,13.24
2023-05-14T19:22:35.817Z,13.21
2023-05-14T19:25:04.386Z,13.16
2023-05-14T19:27:32.958Z,13.09
2023-05-14T19:30:00.663Z,13.02
2023-05-14T19:32:28.255Z,12.95
2023-05-14T19:34:55.967Z,12.86
2023-05-14T19:37:24.082Z,12.78
2023-05-14T19:39:51.636Z,12.70
2023-05-14T19:42:19.314Z,12.61
2023-05-14T19:44:46.854Z,12.55
2023-05-14T19:47:14.860Z,12.49
2023-05-14T19:49:42.540Z,12.43
2023-05-14T19:52:13.406Z,12.37
2023-05-14T19:54:43.829Z,12.31
2023-05-14T19:57:11.759Z,12.24
2023-05-14T19:59:39.526Z,12.20
2023-05-14T20:02:18.265Z,12.14
2023-05-14T20:09:26.076Z,11.90
2023-05-14T20:11:56.583Z,11.85
2023-05-14T21:23:03.816Z,10.41
2023-05-14T21:26:14.750Z,10.38
2023-05-14T21:37:31.625Z,10.20
2023-05-14T21:40:00.505Z,10.18
2023-05-14T21:42:28.000Z,10.16
2023-05-14T21:44:55.570Z,10.14
2023-05-14T21:47:23.173Z,10.13
2023-05-14T21:49:50.829Z,10.13
2023-05-14T22:06:14.273Z,9.87
2023-05-14T22:08:44.600Z,9.86
2023-05-14T22:11:12.224Z,9.83
2023-05-14T22:13:41.175Z,9.80
2023-05-14T22:25:13.602Z,9.75
2023-05-14T22:27:41.304Z,9.75
2023-05-14T22:39:31.858Z,9.62
2023-05-14T22:42:02.194Z,9.57
2023-05-14T22:44:30.129Z,9.57
2023-05-14T22:46:58.001Z,9.56
2023-05-14T22:49:25.684Z,9.53
2023-05-14T22:51:54.341Z,9.50
2023-05-14T22:54:21.927Z,9.49
2023-05-14T22:56:49.617Z,9.44
2023-05-14T22:59:17.196Z,9.40
2023-05-14T23:01:44.974Z,9.34
2023-05-14T23:04:12.633Z,9.31
2023-05-14T23:06:40.318Z,9.26
2023-05-14T23:09:07.997Z,9.19
2023-05-14T23:11:35.498Z,9.13
2023-05-14T23:14:03.065Z,9.09
2023-05-14T23:16:30.755Z,9.08
2023-05-14T23:18:58.528Z,9.07
2023-05-14T23:21:26.277Z,9.03
2023-05-14T23:23:53.847Z,8.99
2023-05-14T23:26:21.798Z,8.97
2023-05-14T23:28:49.450Z,8.95
2023-05-14T23:31:17.607Z,8.93
2023-05-14T23:33:46.404Z,8.92
2023-05-14T23:36:14.007Z,8.90
2023-05-14T23:38:41.866Z,8.94
2023-05-14T23:41:09.430Z,8.93
2023-05-14T23:43:37.003Z,8.91
2023-05-14T23:46:04.623Z,8.89
2023-05-14T23:48:32.432Z,8.87
2023-05-14T23:50:59.921Z,8.89
2023-05-14T23:53:27.560Z,8.89
2023-05-14T23:55:55.090Z,8.90
2023-05-14T23:58:22.860Z,8.92
